sensor_id;sensor_type;location;lat;lon;timestamp;P1;durP1;ratioP1;P2;durP2;ratioP2
26858;SDS011;14429;48.346;16.338;2024-02-15T00:00:09;4.90;;;1.73;;
26858;SDS011;14429;48.346;16.338;2024-02-15T00:02:35;1.33;;;1.23;;
26858;SDS011;14429;48.346;16.338;2024-02-15T00:05:01;1.83;;;0.95;;
26858;SDS011;14429;48.346;16.338;2024-02-15T00:07:26;2.10;;;1.00;;
26858;SDS011;14429;48.346;16.338;2024-02-15T00:09:52;2.65;;;1.10;;
26858;SDS011;14429;48.346;16.338;2024-02-15T00:12:18;1.05;;;0.95;;
26858;SDS011;14429;48.346;16.338;2024-02-15T00:14:44;1.42;;;1.15;;
26858;SDS011;14429;48.346;16.338;2024-02-15T00:17:09;2.25;;;1.15;;
26858;SDS011;14429;48.346;16.338;2024-02-15T00:19:35;2.67;;;1.48;;
26858;SDS011;14429;48.346;16.338;2024-02-15T00:22:00;3.05;;;1.00;;
26858;SDS011;14429;48.346;16.338;2024-02-15T00:24:26;2.45;;;1.13;;
26858;SDS011;14429;48.346;16.338;2024-02-15T00:26:51;1.77;;;0.95;;
26858;SDS011;14429;48.346;16.338;2024-02-15T00:29:18;1.48;;;1.27;;
26858;SDS011;14429;48.346;16.338;2024-02-15T00:31:43;2.60;;;1.40;;
26858;SDS011;14429;48.346;16.338;2024-02-15T00:34:09;1.77;;;1.05;;
26858;SDS011;14429;48.346;16.338;2024-02-15T00:36:34;1.88;;;1.10;;
26858;SDS011;14429;48.346;16.338;2024-02-15T00:38:59;1.98;;;1.00;;
26858;SDS011;14429;48.346;16.338;2024-02-15T00:41:25;2.13;;;1.38;;
26858;SDS011;14429;48.346;16.338;2024-02-15T00:43:50;2.00;;;1.13;;
26858;SDS011;14429;48.346;16.338;2024-02-15T00:46:17;1.52;;;1.00;;
26858;SDS011;14429;48.346;16.338;2024-02-15T00:48:42;2.55;;;1.10;;
26858;SDS011;14429;48.346;16.338;2024-02-15T00:51:08;3.05;;;1.63;;
26858;SDS011;14429;48.346;16.338;2024-02-15T00:53:33;0.95;;;0.80;;
26858;SDS011;14429;48.346;16.338;2024-02-15T00:55:59;1.38;;;1.13;;
26858;SDS011;14429;48.346;16.338;2024-02-15T00:58:24;2.55;;;0.90;;
26858;SDS011;14429;48.346;16.338;2024-02-15T01:00:50;1.95;;;0.93;;
26858;SDS011;14429;48.346;16.338;2024-02-15T01:03:17;1.27;;;0.68;;
26858;SDS011;14429;48.346;16.338;2024-02-15T01:05:42;1.17;;;0.98;;
26858;SDS011;14429;48.346;16.338;2024-02-15T01:08:08;2.95;;;1.27;;
26858;SDS011;14429;48.346;16.338;2024-02-15T01:10:33;3.83;;;1.52;;
26858;SDS011;14429;48.346;16.338;2024-02-15T01:12:59;2.08;;;1.50;;
26858;SDS011;14429;48.346;16.338;2024-02-15T01:15:24;1.38;;;1.05;;
26858;SDS011;14429;48.346;16.338;2024-02-15T01:17:50;1.95;;;1.08;;
26858;SDS011;14429;48.346;16.338;2024-02-15T01:20:16;1.35;;;1.20;;
26858;SDS011;14429;48.346;16.338;2024-02-15T01:22:42;2.47;;;1.25;;
26858;SDS011;14429;48.346;16.338;2024-02-15T01:25:07;2.22;;;1.05;;
26858;SDS011;14429;48.346;16.338;2024-02-15T01:27:33;1.73;;;1.23;;
26858;SDS011;14429;48.346;16.338;2024-02-15T01:29:58;3.67;;;1.98;;
26858;SDS011;14429;48.346;16.338;2024-02-15T01:32:24;2.30;;;1.38;;
26858;SDS011;14429;48.346;16.338;2024-02-15T01:34:49;1.75;;;1.13;;
26858;SDS011;14429;48.346;16.338;2024-02-15T01:37:16;4.95;;;2.75;;
26858;SDS011;14429;48.346;16.338;2024-02-15T01:39:41;2.10;;;1.10;;
26858;SDS011;14429;48.346;16.338;2024-02-15T01:42:07;1.63;;;0.80;;
26858;SDS011;14429;48.346;16.338;2024-02-15T01:44:32;3.30;;;2.05;;
26858;SDS011;14429;48.346;16.338;2024-02-15T01:46:58;1.75;;;1.10;;
26858;SDS011;14429;48.346;16.338;2024-02-15T01:49:26;0.88;;;0.80;;
26858;SDS011;14429;48.346;16.338;2024-02-15T01:51:52;2.50;;;1.05;;
26858;SDS011;14429;48.346;16.338;2024-02-15T01:54:22;1.08;;;0.90;;
26858;SDS011;14429;48.346;16.338;2024-02-15T01:56:49;1.52;;;1.05;;
26858;SDS011;14429;48.346;16.338;2024-02-15T01:59:15;6.95;;;3.25;;
26858;SDS011;14429;48.346;16.338;2024-02-15T02:01:41;1.80;;;1.35;;
26858;SDS011;14429;48.346;16.338;2024-02-15T02:04:07;2.25;;;1.23;;
26858;SDS011;14429;48.346;16.338;2024-02-15T02:06:33;1.10;;;0.90;;
26858;SDS011;14429;48.346;16.338;2024-02-15T02:08:59;3.75;;;1.60;;
26858;SDS011;14429;48.346;16.338;2024-02-15T02:11:26;4.35;;;1.90;;
26858;SDS011;14429;48.346;16.338;2024-02-15T02:13:51;1.00;;;0.88;;
26858;SDS011;14429;48.346;16.338;2024-02-15T02:16:26;2.22;;;1.02;;
26858;SDS011;14429;48.346;16.338;2024-02-15T02:18:52;0.98;;;0.90;;
26858;SDS011;14429;48.346;16.338;2024-02-15T02:21:17;1.42;;;0.85;;
26858;SDS011;14429;48.346;16.338;2024-02-15T02:23:43;1.42;;;1.20;;
26858;SDS011;14429;48.346;16.338;2024-02-15T02:26:14;2.00;;;1.55;;
26858;SDS011;14429;48.346;16.338;2024-02-15T02:28:40;1.92;;;1.20;;
26858;SDS011;14429;48.346;16.338;2024-02-15T02:31:06;1.67;;;1.05;;
26858;SDS011;14429;48.346;16.338;2024-02-15T02:33:31;1.80;;;1.08;;
26858;SDS011;14429;48.346;16.338;2024-02-15T02:35:56;2.58;;;1.10;;
26858;SDS011;14429;48.346;16.338;2024-02-15T02:38:22;3.38;;;1.80;;
26858;SDS011;14429;48.346;16.338;2024-02-15T02:40:47;2.38;;;0.95;;
26858;SDS011;14429;48.346;16.338;2024-02-15T02:43:14;1.35;;;1.00;;
26858;SDS011;14429;48.346;16.338;2024-02-15T02:45:39;1.70;;;1.13;;
26858;SDS011;14429;48.346;16.338;2024-02-15T02:48:05;2.15;;;1.33;;
26858;SDS011;14429;48.346;16.338;2024-02-15T02:50:31;1.90;;;1.00;;
26858;SDS011;14429;48.346;16.338;2024-02-15T02:52:56;1.40;;;1.08;;
26858;SDS011;14429;48.346;16.338;2024-02-15T02:55:22;2.13;;;1.15;;
26858;SDS011;14429;48.346;16.338;2024-02-15T02:57:47;2.40;;;1.20;;
26858;SDS011;14429;48.346;16.338;2024-02-15T03:00:16;2.03;;;1.27;;
26858;SDS011;14429;48.346;16.338;2024-02-15T03:02:42;2.47;;;1.30;;
26858;SDS011;14429;48.346;16.338;2024-02-15T03:05:08;2.58;;;1.42;;
26858;SDS011;14429;48.346;16.338;2024-02-15T03:07:34;2.67;;;1.40;;
26858;SDS011;14429;48.346;16.338;2024-02-15T03:10:00;1.92;;;1.50;;
26858;SDS011;14429;48.346;16.338;2024-02-15T03:12:26;2.55;;;0.98;;
26858;SDS011;14429;48.346;16.338;2024-02-15T03:14:52;1.65;;;1.08;;
26858;SDS011;14429;48.346;16.338;2024-02-15T03:17:18;1.73;;;1.13;;
26858;SDS011;14429;48.346;16.338;2024-02-15T03:19:44;1.13;;;0.85;;
26858;SDS011;14429;48.346;16.338;2024-02-15T03:22:09;1.48;;;1.23;;
26858;SDS011;14429;48.346;16.338;2024-02-15T03:24:35;1.50;;;1.17;;
26858;SDS011;14429;48.346;16.338;2024-02-15T03:27:00;1.50;;;1.10;;
26858;SDS011;14429;48.346;16.338;2024-02-15T03:29:25;1.23;;;0.98;;
26858;SDS011;14429;48.346;16.338;2024-02-15T03:31:51;4.13;;;2.60;;
26858;SDS011;14429;48.346;16.338;2024-02-15T03:34:18;1.88;;;1.38;;
26858;SDS011;14429;48.346;16.338;2024-02-15T03:36:43;1.70;;;1.13;;
26858;SDS011;14429;48.346;16.338;2024-02-15T03:39:08;1.45;;;1.08;;
26858;SDS011;14429;48.346;16.338;2024-02-15T03:41:34;2.47;;;1.33;;
26858;SDS011;14429;48.346;16.338;2024-02-15T03:43:59;2.00;;;1.27;;
26858;SDS011;14429;48.346;16.338;2024-02-15T03:46:25;1.38;;;1.13;;
26858;SDS011;14429;48.346;16.338;2024-02-15T03:48:50;1.50;;;1.02;;
26858;SDS011;14429;48.346;16.338;2024-02-15T03:51:18;1.85;;;1.15;;
26858;SDS011;14429;48.346;16.338;2024-02-15T03:53:43;1.88;;;1.00;;
26858;SDS011;14429;48.346;16.338;2024-02-15T03:56:09;2.20;;;1.15;;
26858;SDS011;14429;48.346;16.338;2024-02-15T03:58:34;2.00;;;1.45;;
26858;SDS011;14429;48.346;16.338;2024-02-15T04:01:00;1.23;;;0.93;;
26858;SDS011;14429;48.346;16.338;2024-02-15T04:03:25;1.90;;;1.25;;
26858;SDS011;14429;48.346;16.338;2024-02-15T04:05:51;1.52;;;0.80;;
26858;SDS011;14429;48.346;16.338;2024-02-15T04:08:18;2.40;;;1.27;;
26858;SDS011;14429;48.346;16.338;2024-02-15T04:10:43;2.00;;;1.60;;
26858;SDS011;14429;48.346;16.338;2024-02-15T04:13:09;2.42;;;1.02;;
26858;SDS011;14429;48.346;16.338;2024-02-15T04:15:34;0.85;;;0.77;;
26858;SDS011;14429;48.346;16.338;2024-02-15T04:17:59;1.90;;;1.20;;
26858;SDS011;14429;48.346;16.338;2024-02-15T04:20:25;1.65;;;1.25;;
26858;SDS011;14429;48.346;16.338;2024-02-15T04:22:50;1.92;;;1.23;;
26858;SDS011;14429;48.346;16.338;2024-02-15T04:25:17;2.45;;;1.27;;
26858;SDS011;14429;48.346;16.338;2024-02-15T04:27:42;1.52;;;1.05;;
26858;SDS011;14429;48.346;16.338;2024-02-15T04:30:09;3.15;;;1.45;;
26858;SDS011;14429;48.346;16.338;2024-02-15T04:32:35;2.30;;;1.45;;
26858;SDS011;14429;48.346;16.338;2024-02-15T04:35:00;1.52;;;1.33;;
26858;SDS011;14429;48.346;16.338;2024-02-15T04:37:26;1.58;;;1.20;;
26858;SDS011;14429;48.346;16.338;2024-02-15T04:39:51;1.35;;;1.25;;
26858;SDS011;14429;48.346;16.338;2024-02-15T04:42:18;1.00;;;0.88;;
26858;SDS011;14429;48.346;16.338;2024-02-15T04:44:43;1.10;;;0.93;;
26858;SDS011;14429;48.346;16.338;2024-02-15T04:47:09;1.70;;;1.13;;
26858;SDS011;14429;48.346;16.338;2024-02-15T04:49:34;1.63;;;1.00;;
26858;SDS011;14429;48.346;16.338;2024-02-15T04:52:00;2.03;;;1.38;;
26858;SDS011;14429;48.346;16.338;2024-02-15T04:54:25;1.35;;;1.02;;
26858;SDS011;14429;48.346;16.338;2024-02-15T04:56:50;1.80;;;1.00;;
26858;SDS011;14429;48.346;16.338;2024-02-15T04:59:17;1.33;;;1.23;;
26858;SDS011;14429;48.346;16.338;2024-02-15T05:01:43;9.65;;;3.05;;
26858;SDS011;14429;48.346;16.338;2024-02-15T05:04:09;2.65;;;1.73;;
26858;SDS011;14429;48.346;16.338;2024-02-15T05:06:34;1.42;;;1.13;;
26858;SDS011;14429;48.346;16.338;2024-02-15T05:09:00;1.98;;;1.25;;
26858;SDS011;14429;48.346;16.338;2024-02-15T05:11:25;7.22;;;3.22;;
26858;SDS011;14429;48.346;16.338;2024-02-15T05:13:51;1.67;;;1.20;;
26858;SDS011;14429;48.346;16.338;2024-02-15T05:16:18;2.60;;;1.55;;
26858;SDS011;14429;48.346;16.338;2024-02-15T05:18:44;1.98;;;1.30;;
26858;SDS011;14429;48.346;16.338;2024-02-15T05:21:09;1.00;;;0.93;;
26858;SDS011;14429;48.346;16.338;2024-02-15T05:23:35;1.40;;;1.13;;
26858;SDS011;14429;48.346;16.338;2024-02-15T05:26:00;3.20;;;1.13;;
26858;SDS011;14429;48.346;16.338;2024-02-15T05:28:26;1.20;;;1.02;;
26858;SDS011;14429;48.346;16.338;2024-02-15T05:30:51;2.35;;;1.42;;
26858;SDS011;14429;48.346;16.338;2024-02-15T05:33:34;2.10;;;1.25;;
26858;SDS011;14429;48.346;16.338;2024-02-15T05:36:00;1.25;;;1.00;;
26858;SDS011;14429;48.346;16.338;2024-02-15T05:38:25;1.00;;;0.95;;
26858;SDS011;14429;48.346;16.338;2024-02-15T05:40:50;2.15;;;1.42;;
26858;SDS011;14429;48.346;16.338;2024-02-15T05:43:16;2.10;;;1.13;;
26858;SDS011;14429;48.346;16.338;2024-02-15T05:45:41;1.10;;;0.98;;
26858;SDS011;14429;48.346;16.338;2024-02-15T05:48:07;2.40;;;1.08;;
26858;SDS011;14429;48.346;16.338;2024-02-15T05:50:34;1.50;;;1.05;;
26858;SDS011;14429;48.346;16.338;2024-02-15T05:52:59;1.10;;;0.90;;
26858;SDS011;14429;48.346;16.338;2024-02-15T05:55:25;1.23;;;0.95;;
26858;SDS011;14429;48.346;16.338;2024-02-15T05:57:50;1.40;;;1.10;;
26858;SDS011;14429;48.346;16.338;2024-02-15T06:00:16;3.03;;;0.98;;
26858;SDS011;14429;48.346;16.338;2024-02-15T06:02:43;2.80;;;1.20;;
26858;SDS011;14429;48.346;16.338;2024-02-15T06:05:08;1.60;;;0.90;;
26858;SDS011;14429;48.346;16.338;2024-02-15T06:07:35;1.10;;;1.02;;
26858;SDS011;14429;48.346;16.338;2024-02-15T06:10:00;2.17;;;1.77;;
26858;SDS011;14429;48.346;16.338;2024-02-15T06:12:26;1.77;;;1.10;;
26858;SDS011;14429;48.346;16.338;2024-02-15T06:14:51;2.70;;;1.85;;
26858;SDS011;14429;48.346;16.338;2024-02-15T06:17:17;3.78;;;1.67;;
26858;SDS011;14429;48.346;16.338;2024-02-15T06:19:42;1.45;;;1.10;;
26858;SDS011;14429;48.346;16.338;2024-02-15T06:22:07;3.20;;;1.55;;
26858;SDS011;14429;48.346;16.338;2024-02-15T06:24:34;1.52;;;1.17;;
26858;SDS011;14429;48.346;16.338;2024-02-15T06:26:59;1.52;;;1.25;;
26858;SDS011;14429;48.346;16.338;2024-02-15T06:29:25;1.40;;;1.10;;
26858;SDS011;14429;48.346;16.338;2024-02-15T06:31:50;1.77;;;1.30;;
26858;SDS011;14429;48.346;16.338;2024-02-15T06:34:16;3.55;;;1.27;;
26858;SDS011;14429;48.346;16.338;2024-02-15T06:36:48;3.83;;;1.70;;
26858;SDS011;14429;48.346;16.338;2024-02-15T06:39:14;7.22;;;3.90;;
26858;SDS011;14429;48.346;16.338;2024-02-15T06:41:41;12.55;;;5.38;;
26858;SDS011;14429;48.346;16.338;2024-02-15T06:44:07;14.30;;;6.57;;
26858;SDS011;14429;48.346;16.338;2024-02-15T06:46:32;1.88;;;1.20;;
26858;SDS011;14429;48.346;16.338;2024-02-15T06:48:57;2.42;;;1.50;;
26858;SDS011;14429;48.346;16.338;2024-02-15T06:51:23;14.60;;;5.70;;
26858;SDS011;14429;48.346;16.338;2024-02-15T06:53:48;16.75;;;7.25;;
26858;SDS011;14429;48.346;16.338;2024-02-15T06:56:13;11.77;;;4.25;;
26858;SDS011;14429;48.346;16.338;2024-02-15T06:58:40;1.77;;;1.02;;
26858;SDS011;14429;48.346;16.338;2024-02-15T07:01:06;1.98;;;1.20;;
26858;SDS011;14429;48.346;16.338;2024-02-15T07:03:31;2.42;;;1.50;;
26858;SDS011;14429;48.346;16.338;2024-02-15T07:05:56;2.20;;;1.25;;
26858;SDS011;14429;48.346;16.338;2024-02-15T07:08:22;3.92;;;1.85;;
26858;SDS011;14429;48.346;16.338;2024-02-15T07:10:47;1.95;;;1.40;;
26858;SDS011;14429;48.346;16.338;2024-02-15T07:13:13;1.75;;;1.10;;
26858;SDS011;14429;48.346;16.338;2024-02-15T07:15:40;2.50;;;1.30;;
26858;SDS011;14429;48.346;16.338;2024-02-15T07:18:05;1.65;;;1.38;;
26858;SDS011;14429;48.346;16.338;2024-02-15T07:20:31;2.25;;;1.38;;
26858;SDS011;14429;48.346;16.338;2024-02-15T07:22:56;1.50;;;1.02;;
26858;SDS011;14429;48.346;16.338;2024-02-15T07:25:22;1.70;;;1.15;;
26858;SDS011;14429;48.346;16.338;2024-02-15T07:27:47;1.92;;;1.17;;
26858;SDS011;14429;48.346;16.338;2024-02-15T07:30:13;5.80;;;1.90;;
26858;SDS011;14429;48.346;16.338;2024-02-15T07:32:40;3.30;;;1.27;;
26858;SDS011;14429;48.346;16.338;2024-02-15T07:35:06;19.10;;;8.63;;
26858;SDS011;14429;48.346;16.338;2024-02-15T07:37:31;3.10;;;2.05;;
26858;SDS011;14429;48.346;16.338;2024-02-15T07:39:57;3.30;;;1.55;;
26858;SDS011;14429;48.346;16.338;2024-02-15T07:42:22;1.65;;;1.30;;
26858;SDS011;14429;48.346;16.338;2024-02-15T07:44:48;6.05;;;2.47;;
26858;SDS011;14429;48.346;16.338;2024-02-15T07:47:13;7.38;;;3.55;;
26858;SDS011;14429;48.346;16.338;2024-02-15T07:49:40;5.88;;;3.60;;
26858;SDS011;14429;48.346;16.338;2024-02-15T07:52:06;7.45;;;3.47;;
26858;SDS011;14429;48.346;16.338;2024-02-15T07:54:32;7.38;;;3.72;;
26858;SDS011;14429;48.346;16.338;2024-02-15T07:56:57;5.75;;;3.10;;
26858;SDS011;14429;48.346;16.338;2024-02-15T07:59:22;5.10;;;2.70;;
26858;SDS011;14429;48.346;16.338;2024-02-15T08:01:48;7.10;;;3.65;;
26858;SDS011;14429;48.346;16.338;2024-02-15T08:04:13;7.18;;;3.80;;
26858;SDS011;14429;48.346;16.338;2024-02-15T08:06:41;5.82;;;3.38;;
26858;SDS011;14429;48.346;16.338;2024-02-15T08:09:06;5.30;;;3.17;;
26858;SDS011;14429;48.346;16.338;2024-02-15T08:11:31;4.75;;;3.17;;
26858;SDS011;14429;48.346;16.338;2024-02-15T08:13:57;10.05;;;5.05;;
26858;SDS011;14429;48.346;16.338;2024-02-15T08:16:22;8.43;;;3.63;;
26858;SDS011;14429;48.346;16.338;2024-02-15T08:18:48;7.38;;;3.45;;
26858;SDS011;14429;48.346;16.338;2024-02-15T08:21:14;18.75;;;9.13;;
26858;SDS011;14429;48.346;16.338;2024-02-15T08:23:40;25.45;;;10.02;;
26858;SDS011;14429;48.346;16.338;2024-02-15T08:26:06;13.50;;;6.43;;
26858;SDS011;14429;48.346;16.338;2024-02-15T08:28:31;7.20;;;3.38;;
26858;SDS011;14429;48.346;16.338;2024-02-15T08:30:57;13.15;;;6.93;;
26858;SDS011;14429;48.346;16.338;2024-02-15T08:33:23;9.43;;;5.53;;
26858;SDS011;14429;48.346;16.338;2024-02-15T08:35:48;7.15;;;3.28;;
26858;SDS011;14429;48.346;16.338;2024-02-15T08:38:14;9.27;;;4.07;;
26858;SDS011;14429;48.346;16.338;2024-02-15T08:40:41;12.00;;;5.13;;
26858;SDS011;14429;48.346;16.338;2024-02-15T08:43:06;6.15;;;3.42;;
26858;SDS011;14429;48.346;16.338;2024-02-15T08:45:31;7.85;;;4.15;;
26858;SDS011;14429;48.346;16.338;2024-02-15T08:47:57;9.70;;;4.97;;
26858;SDS011;14429;48.346;16.338;2024-02-15T08:50:22;7.53;;;4.25;;
26858;SDS011;14429;48.346;16.338;2024-02-15T08:52:48;11.45;;;5.25;;
26858;SDS011;14429;48.346;16.338;2024-02-15T08:55:13;10.45;;;4.40;;
26858;SDS011;14429;48.346;16.338;2024-02-15T08:57:40;7.70;;;3.25;;
26858;SDS011;14429;48.346;16.338;2024-02-15T09:00:06;7.75;;;4.75;;
26858;SDS011;14429;48.346;16.338;2024-02-15T09:02:33;8.77;;;3.20;;
26858;SDS011;14429;48.346;16.338;2024-02-15T09:04:58;7.75;;;3.20;;
26858;SDS011;14429;48.346;16.338;2024-02-15T09:07:23;5.38;;;3.47;;
26858;SDS011;14429;48.346;16.338;2024-02-15T09:09:49;9.63;;;4.97;;
26858;SDS011;14429;48.346;16.338;2024-02-15T09:12:14;4.75;;;3.10;;
26858;SDS011;14429;48.346;16.338;2024-02-15T09:14:41;4.72;;;3.40;;
26858;SDS011;14429;48.346;16.338;2024-02-15T09:17:06;7.63;;;3.78;;
26858;SDS011;14429;48.346;16.338;2024-02-15T09:19:32;10.93;;;5.72;;
26858;SDS011;14429;48.346;16.338;2024-02-15T09:21:57;8.07;;;3.70;;
26858;SDS011;14429;48.346;16.338;2024-02-15T09:24:23;11.02;;;5.15;;
26858;SDS011;14429;48.346;16.338;2024-02-15T09:26:48;11.40;;;5.47;;
26858;SDS011;14429;48.346;16.338;2024-02-15T09:29:14;8.10;;;5.75;;
26858;SDS011;14429;48.346;16.338;2024-02-15T09:31:40;4.63;;;3.17;;
26858;SDS011;14429;48.346;16.338;2024-02-15T09:34:06;5.68;;;3.85;;
26858;SDS011;14429;48.346;16.338;2024-02-15T09:36:33;3.72;;;2.67;;
26858;SDS011;14429;48.346;16.338;2024-02-15T09:38:59;9.27;;;4.30;;
26858;SDS011;14429;48.346;16.338;2024-02-15T09:41:24;7.68;;;4.70;;
26858;SDS011;14429;48.346;16.338;2024-02-15T09:43:50;8.80;;;4.35;;
26858;SDS011;14429;48.346;16.338;2024-02-15T09:46:15;10.05;;;5.07;;
26858;SDS011;14429;48.346;16.338;2024-02-15T09:48:42;6.13;;;3.78;;
26858;SDS011;14429;48.346;16.338;2024-02-15T09:51:12;13.25;;;6.05;;
26858;SDS011;14429;48.346;16.338;2024-02-15T09:53:38;7.05;;;3.10;;
26858;SDS011;14429;48.346;16.338;2024-02-15T09:56:04;5.80;;;3.72;;
26858;SDS011;14429;48.346;16.338;2024-02-15T09:58:31;9.13;;;5.03;;
26858;SDS011;14429;48.346;16.338;2024-02-15T10:00:56;12.70;;;5.15;;
26858;SDS011;14429;48.346;16.338;2024-02-15T10:03:22;7.18;;;4.25;;
26858;SDS011;14429;48.346;16.338;2024-02-15T10:05:52;6.32;;;3.40;;
26858;SDS011;14429;48.346;16.338;2024-02-15T10:08:18;5.25;;;2.90;;
26858;SDS011;14429;48.346;16.338;2024-02-15T10:10:43;6.35;;;2.70;;
26858;SDS011;14429;48.346;16.338;2024-02-15T10:13:12;6.10;;;3.00;;
26858;SDS011;14429;48.346;16.338;2024-02-15T10:15:38;5.35;;;2.70;;
26858;SDS011;14429;48.346;16.338;2024-02-15T10:18:05;9.15;;;5.18;;
26858;SDS011;14429;48.346;16.338;2024-02-15T10:20:32;12.15;;;5.15;;
26858;SDS011;14429;48.346;16.338;2024-02-15T10:23:11;7.68;;;4.82;;
26858;SDS011;14429;48.346;16.338;2024-02-15T10:25:38;7.22;;;3.83;;
26858;SDS011;14429;48.346;16.338;2024-02-15T10:28:05;8.25;;;5.45;;
26858;SDS011;14429;48.346;16.338;2024-02-15T10:30:31;16.02;;;5.43;;
26858;SDS011;14429;48.346;16.338;2024-02-15T10:32:56;7.90;;;4.35;;
26858;SDS011;14429;48.346;16.338;2024-02-15T10:35:22;8.60;;;4.97;;
26858;SDS011;14429;48.346;16.338;2024-02-15T10:37:48;5.68;;;3.08;;
26858;SDS011;14429;48.346;16.338;2024-02-15T10:40:15;5.93;;;3.22;;
26858;SDS011;14429;48.346;16.338;2024-02-15T10:42:42;5.90;;;3.22;;
26858;SDS011;14429;48.346;16.338;2024-02-15T10:45:09;7.28;;;2.88;;
26858;SDS011;14429;48.346;16.338;2024-02-15T10:47:35;8.32;;;3.85;;
26858;SDS011;14429;48.346;16.338;2024-02-15T10:50:00;6.50;;;3.90;;
26858;SDS011;14429;48.346;16.338;2024-02-15T10:52:28;8.00;;;5.00;;
26858;SDS011;14429;48.346;16.338;2024-02-15T10:55:00;7.00;;;3.10;;
26858;SDS011;14429;48.346;16.338;2024-02-15T10:57:30;4.75;;;3.15;;
26858;SDS011;14429;48.346;16.338;2024-02-15T10:59:57;5.97;;;2.80;;
26858;SDS011;14429;48.346;16.338;2024-02-15T11:02:27;5.10;;;2.50;;
26858;SDS011;14429;48.346;16.338;2024-02-15T11:04:53;5.25;;;3.28;;
26858;SDS011;14429;48.346;16.338;2024-02-15T11:07:20;14.95;;;5.18;;
26858;SDS011;14429;48.346;16.338;2024-02-15T11:09:46;12.00;;;5.88;;
26858;SDS011;14429;48.346;16.338;2024-02-15T11:12:11;6.88;;;3.05;;
26858;SDS011;14429;48.346;16.338;2024-02-15T11:14:38;4.90;;;3.90;;
26858;SDS011;14429;48.346;16.338;2024-02-15T11:17:09;4.28;;;2.58;;
26858;SDS011;14429;48.346;16.338;2024-02-15T11:19:42;7.97;;;4.35;;
26858;SDS011;14429;48.346;16.338;2024-02-15T11:22:09;12.18;;;6.20;;
26858;SDS011;14429;48.346;16.338;2024-02-15T11:24:35;7.28;;;4.03;;
26858;SDS011;14429;48.346;16.338;2024-02-15T11:27:01;4.35;;;2.63;;
26858;SDS011;14429;48.346;16.338;2024-02-15T11:29:48;3.97;;;2.60;;
26858;SDS011;14429;48.346;16.338;2024-02-15T11:35:04;7.95;;;4.85;;
26858;SDS011;14429;48.346;16.338;2024-02-15T11:40:20;7.25;;;3.17;;
26858;SDS011;14429;48.346;16.338;2024-02-15T11:42:46;6.53;;;4.10;;
26858;SDS011;14429;48.346;16.338;2024-02-15T11:45:12;9.98;;;4.93;;
26858;SDS011;14429;48.346;16.338;2024-02-15T11:47:38;6.32;;;3.20;;
26858;SDS011;14429;48.346;16.338;2024-02-15T11:50:05;9.07;;;5.22;;
26858;SDS011;14429;48.346;16.338;2024-02-15T11:52:32;3.13;;;2.00;;
26858;SDS011;14429;48.346;16.338;2024-02-15T11:55:04;8.23;;;4.55;;
26858;SDS011;14429;48.346;16.338;2024-02-15T11:57:29;4.50;;;2.72;;
26858;SDS011;14429;48.346;16.338;2024-02-15T11:59:55;7.88;;;4.90;;
26858;SDS011;14429;48.346;16.338;2024-02-15T12:02:23;5.32;;;2.67;;
26858;SDS011;14429;48.346;16.338;2024-02-15T12:04:49;4.72;;;3.20;;
26858;SDS011;14429;48.346;16.338;2024-02-15T12:07:14;5.28;;;2.70;;
26858;SDS011;14429;48.346;16.338;2024-02-15T12:09:40;5.60;;;3.40;;
26858;SDS011;14429;48.346;16.338;2024-02-15T12:12:05;10.45;;;3.80;;
26858;SDS011;14429;48.346;16.338;2024-02-15T12:14:31;8.50;;;2.95;;
26858;SDS011;14429;48.346;16.338;2024-02-15T12:17:00;7.45;;;3.28;;
26858;SDS011;14429;48.346;16.338;2024-02-15T12:19:27;5.82;;;3.47;;
26858;SDS011;14429;48.346;16.338;2024-02-15T12:21:52;5.85;;;2.50;;
26858;SDS011;14429;48.346;16.338;2024-02-15T12:24:21;5.40;;;2.67;;
26858;SDS011;14429;48.346;16.338;2024-02-15T12:26:47;4.78;;;2.80;;
26858;SDS011;14429;48.346;16.338;2024-02-15T12:29:16;5.63;;;3.00;;
26858;SDS011;14429;48.346;16.338;2024-02-15T12:31:42;6.90;;;2.88;;
26858;SDS011;14429;48.346;16.338;2024-02-15T12:34:08;5.72;;;3.00;;
26858;SDS011;14429;48.346;16.338;2024-02-15T12:36:35;3.90;;;2.30;;
26858;SDS011;14429;48.346;16.338;2024-02-15T12:39:01;4.97;;;3.10;;
26858;SDS011;14429;48.346;16.338;2024-02-15T12:41:27;3.35;;;2.63;;
26858;SDS011;14429;48.346;16.338;2024-02-15T12:43:53;4.88;;;2.95;;
26858;SDS011;14429;48.346;16.338;2024-02-15T12:46:18;9.30;;;3.78;;
26858;SDS011;14429;48.346;16.338;2024-02-15T12:48:44;4.45;;;2.95;;
26858;SDS011;14429;48.346;16.338;2024-02-15T12:51:13;3.25;;;2.63;;
26858;SDS011;14429;48.346;16.338;2024-02-15T12:53:40;3.40;;;2.40;;
26858;SDS011;14429;48.346;16.338;2024-02-15T12:56:05;4.30;;;2.53;;
26858;SDS011;14429;48.346;16.338;2024-02-15T12:58:30;8.63;;;3.20;;
26858;SDS011;14429;48.346;16.338;2024-02-15T13:00:56;5.70;;;3.10;;
26858;SDS011;14429;48.346;16.338;2024-02-15T13:03:21;5.32;;;3.38;;
26858;SDS011;14429;48.346;16.338;2024-02-15T13:05:47;3.30;;;2.17;;
26858;SDS011;14429;48.346;16.338;2024-02-15T13:08:12;6.35;;;3.20;;
26858;SDS011;14429;48.346;16.338;2024-02-15T13:10:39;7.63;;;3.00;;
26858;SDS011;14429;48.346;16.338;2024-02-15T13:13:04;7.25;;;3.53;;
26858;SDS011;14429;48.346;16.338;2024-02-15T13:15:30;11.73;;;5.43;;
26858;SDS011;14429;48.346;16.338;2024-02-15T13:17:55;13.85;;;5.53;;
26858;SDS011;14429;48.346;16.338;2024-02-15T13:20:21;10.60;;;5.03;;
26858;SDS011;14429;48.346;16.338;2024-02-15T13:22:47;7.97;;;4.53;;
26858;SDS011;14429;48.346;16.338;2024-02-15T13:25:13;8.88;;;5.05;;
26858;SDS011;14429;48.346;16.338;2024-02-15T13:27:40;7.32;;;3.85;;
26858;SDS011;14429;48.346;16.338;2024-02-15T13:30:06;8.52;;;4.60;;
26858;SDS011;14429;48.346;16.338;2024-02-15T13:32:32;10.25;;;3.85;;
26858;SDS011;14429;48.346;16.338;2024-02-15T13:34:57;12.95;;;6.13;;
26858;SDS011;14429;48.346;16.338;2024-02-15T13:37:23;13.43;;;5.28;;
26858;SDS011;14429;48.346;16.338;2024-02-15T13:39:48;10.43;;;5.32;;
26858;SDS011;14429;48.346;16.338;2024-02-15T13:42:14;10.23;;;4.95;;
26858;SDS011;14429;48.346;16.338;2024-02-15T13:44:41;8.88;;;4.93;;
26858;SDS011;14429;48.346;16.338;2024-02-15T13:47:06;7.55;;;4.40;;
26858;SDS011;14429;48.346;16.338;2024-02-15T13:49:31;8.52;;;4.88;;
26858;SDS011;14429;48.346;16.338;2024-02-15T13:51:57;7.40;;;3.65;;
26858;SDS011;14429;48.346;16.338;2024-02-15T13:54:23;11.85;;;6.53;;
26858;SDS011;14429;48.346;16.338;2024-02-15T13:56:48;13.65;;;5.20;;
26858;SDS011;14429;48.346;16.338;2024-02-15T13:59:14;12.90;;;5.18;;
26858;SDS011;14429;48.346;16.338;2024-02-15T14:01:40;5.97;;;3.10;;
26858;SDS011;14429;48.346;16.338;2024-02-15T14:04:06;6.50;;;3.70;;
26858;SDS011;14429;48.346;16.338;2024-02-15T14:06:31;8.43;;;4.55;;
26858;SDS011;14429;48.346;16.338;2024-02-15T14:08:57;4.72;;;3.55;;
26858;SDS011;14429;48.346;16.338;2024-02-15T14:11:22;6.95;;;3.30;;
26858;SDS011;14429;48.346;16.338;2024-02-15T14:13:47;12.30;;;5.47;;
26858;SDS011;14429;48.346;16.338;2024-02-15T14:16:13;8.52;;;4.05;;
26858;SDS011;14429;48.346;16.338;2024-02-15T14:18:40;7.45;;;4.60;;
26858;SDS011;14429;48.346;16.338;2024-02-15T14:21:05;11.20;;;5.30;;
26858;SDS011;14429;48.346;16.338;2024-02-15T14:23:30;8.82;;;4.60;;
26858;SDS011;14429;48.346;16.338;2024-02-15T14:25:56;3.60;;;2.28;;
26858;SDS011;14429;48.346;16.338;2024-02-15T14:28:21;8.98;;;4.72;;
26858;SDS011;14429;48.346;16.338;2024-02-15T14:30:47;5.93;;;3.08;;